createdAt,value
2018-11-05T00:01:50.902Z,46.23
2018-11-05T00:04:22.663Z,37.87
2018-11-05T00:06:54.539Z,43.27
2018-11-05T00:09:26.332Z,46.10
2018-11-05T00:11:58.188Z,45.90
2018-11-05T00:14:29.964Z,46.53
2018-11-05T00:17:01.798Z,41.30
2018-11-05T00:19:33.782Z,53.10
2018-11-05T00:22:05.454Z,42.10
2018-11-05T00:24:37.346Z,43.30
2018-11-05T00:27:09.196Z,41.07
2018-11-05T00:29:40.986Z,39.03
2018-11-05T00:32:12.781Z,43.90
2018-11-05T00:34:44.571Z,43.57
2018-11-05T00:37:16.377Z,36.70
2018-11-05T00:39:48.198Z,46.07
2018-11-05T00:42:20.019Z,41.20
2018-11-05T00:44:51.824Z,35.50
2018-11-05T00:47:23.644Z,36.87
2018-11-05T00:49:55.449Z,41.43
2018-11-05T00:52:27.248Z,43.00
2018-11-05T00:54:59.058Z,39.53
2018-11-05T00:57:30.852Z,41.43
2018-11-05T01:00:02.815Z,38.60
2018-11-05T01:02:34.650Z,37.20
2018-11-05T01:05:07.269Z,38.67
2018-11-05T01:07:39.325Z,32.17
2018-11-05T01:10:12.493Z,33.30
2018-11-05T01:12:44.300Z,37.70
2018-11-05T01:15:17.227Z,35.93
2018-11-05T01:17:49.122Z,42.07
2018-11-05T01:20:20.888Z,41.40
2018-11-05T01:22:52.687Z,30.93
2018-11-05T01:25:24.523Z,45.77
2018-11-05T01:27:56.354Z,45.20
2018-11-05T01:30:28.135Z,35.63
2018-11-05T01:33:00.010Z,33.63
2018-11-05T01:35:31.802Z,33.07
2018-11-05T01:38:03.677Z,35.70
2018-11-05T01:40:35.482Z,36.20
2018-11-05T01:43:07.260Z,36.17
2018-11-05T01:45:39.037Z,29.13
2018-11-05T01:48:10.860Z,33.93
2018-11-05T01:50:42.625Z,36.90
2018-11-05T01:53:14.433Z,26.50
2018-11-05T01:55:46.218Z,31.57
2018-11-05T01:58:18.001Z,28.60
2018-11-05T02:00:49.786Z,37.77
2018-11-05T02:03:21.633Z,36.47
2018-11-05T02:05:53.460Z,36.37
2018-11-05T02:08:25.268Z,30.43
2018-11-05T02:10:57.058Z,41.47
2018-11-05T02:13:29.392Z,36.73
2018-11-05T02:16:01.037Z,35.43
2018-11-05T02:18:32.825Z,30.17
2018-11-05T02:21:04.622Z,34.10
2018-11-05T02:23:36.417Z,32.07
2018-11-05T02:26:08.363Z,32.67
2018-11-05T02:28:40.176Z,35.63
2018-11-05T02:31:12.025Z,30.80
2018-11-05T02:33:43.867Z,32.57
2018-11-05T02:36:15.685Z,39.70
2018-11-05T02:38:47.581Z,32.60
2018-11-05T02:41:19.372Z,38.53
2018-11-05T02:43:51.185Z,37.63
2018-11-05T02:46:22.962Z,40.50
2018-11-05T02:48:54.761Z,34.07
2018-11-05T02:51:26.531Z,38.47
2018-11-05T02:53:58.332Z,36.30
2018-11-05T02:56:30.131Z,33.80
2018-11-05T02:59:02.038Z,37.97
2018-11-05T03:01:33.738Z,37.00
2018-11-05T03:04:05.574Z,39.73
2018-11-05T03:06:37.374Z,215.33
2018-11-05T03:09:12.657Z,48.47
2018-11-05T03:11:44.466Z,42.20
2018-11-05T03:14:16.273Z,40.33
2018-11-05T03:16:48.052Z,39.17
2018-11-05T03:19:19.884Z,33.67
2018-11-05T03:21:51.666Z,42.20
2018-11-05T03:24:23.511Z,34.07
2018-11-05T03:26:55.290Z,33.80
2018-11-05T03:29:27.116Z,44.13
2018-11-05T03:31:58.919Z,44.03
2018-11-05T03:34:30.735Z,35.93
2018-11-05T03:37:02.526Z,47.97
2018-11-05T03:39:34.332Z,34.70
2018-11-05T03:42:06.300Z,47.43
2018-11-05T03:44:38.143Z,51.60
2018-11-05T03:47:09.930Z,33.37
2018-11-05T03:49:41.756Z,128.13
2018-11-05T03:52:13.540Z,51.73
2018-11-05T03:54:45.371Z,48.97
2018-11-05T03:57:17.151Z,60.43
2018-11-05T03:59:48.991Z,47.77
2018-11-05T04:02:20.805Z,42.77
2018-11-05T04:04:52.647Z,44.37
2018-11-05T04:07:26.148Z,51.57
2018-11-05T04:09:56.390Z,138.83
2018-11-05T04:12:28.182Z,106.70
2018-11-05T04:15:00.032Z,116.97
2018-11-05T04:17:31.846Z,47.23
2018-11-05T04:20:03.649Z,55.97
2018-11-05T04:22:35.455Z,78.67
2018-11-05T04:25:07.406Z,33.10
2018-11-05T04:27:39.241Z,54.90
2018-11-05T04:30:16.582Z,67.73
2018-11-05T04:32:48.449Z,110.00
2018-11-05T04:35:20.242Z,33.27
2018-11-05T04:37:52.134Z,53.27
2018-11-05T04:40:23.864Z,44.63
2018-11-05T04:42:55.657Z,49.63
2018-11-05T04:45:27.516Z,76.90
2018-11-05T04:47:59.426Z,41.83
2018-11-05T04:50:31.304Z,50.83
2018-11-05T04:53:03.207Z,41.00
2018-11-05T04:55:35.035Z,67.27
2018-11-05T04:58:06.839Z,117.57
2018-11-05T05:00:38.692Z,51.60
2018-11-05T05:03:10.526Z,32.17
2018-11-05T05:05:42.376Z,27.90
2018-11-05T05:08:14.222Z,37.63
2018-11-05T05:10:46.041Z,67.80
2018-11-05T05:13:17.857Z,35.53
2018-11-05T05:15:49.674Z,26.60
2018-11-05T05:18:21.468Z,27.57
2018-11-05T05:20:53.274Z,36.07
2018-11-05T05:23:25.179Z,24.57
2018-11-05T05:25:57.037Z,36.70
2018-11-05T05:28:28.958Z,31.40
2018-11-05T05:31:00.792Z,36.87
2018-11-05T05:33:32.668Z,31.90
2018-11-05T05:36:04.453Z,30.10
2018-11-05T05:38:36.201Z,26.13
2018-11-05T05:41:08.451Z,27.73
2018-11-05T05:43:40.266Z,33.37
2018-11-05T05:46:12.116Z,28.00
2018-11-05T05:48:43.907Z,34.03
2018-11-05T05:51:15.926Z,21.20
2018-11-05T05:53:47.720Z,26.27
2018-11-05T05:56:19.587Z,25.50
2018-11-05T05:58:51.435Z,24.17
2018-11-05T06:01:23.378Z,32.90
2018-11-05T06:03:55.370Z,38.73
2018-11-05T06:06:27.227Z,37.87
2018-11-05T06:08:59.163Z,22.87
2018-11-05T06:11:31.048Z,25.03
2018-11-05T06:14:02.957Z,21.40
2018-11-05T06:16:35.128Z,41.50
2018-11-05T06:19:07.208Z,29.33
2018-11-05T06:21:39.215Z,19.10
2018-11-05T06:24:10.995Z,24.43
2018-11-05T06:26:42.815Z,21.43
2018-11-05T06:29:14.648Z,24.00
2018-11-05T06:31:46.477Z,22.87
2018-11-05T06:34:18.420Z,34.23
2018-11-05T06:36:50.153Z,24.53
2018-11-05T06:39:22.029Z,21.67
2018-11-05T06:41:54.065Z,38.90
2018-11-05T06:44:25.854Z,21.77
2018-11-05T06:46:57.728Z,27.37
2018-11-05T06:49:29.591Z,28.37
2018-11-05T06:52:01.445Z,28.03
2018-11-05T06:54:33.297Z,33.73
2018-11-05T06:57:05.173Z,45.23
2018-11-05T06:59:36.980Z,25.10
2018-11-05T07:02:08.822Z,44.53
2018-11-05T07:04:40.726Z,30.20
2018-11-05T07:07:12.567Z,86.07
2018-11-05T07:09:44.457Z,25.60
2018-11-05T07:12:16.226Z,48.13
2018-11-05T07:14:48.160Z,28.83
2018-11-05T07:17:19.931Z,45.03
2018-11-05T07:19:51.745Z,26.90
2018-11-05T07:22:23.628Z,30.13
2018-11-05T07:24:55.533Z,37.47
2018-11-05T07:27:27.598Z,31.40
2018-11-05T07:29:59.341Z,32.67
2018-11-05T07:32:31.223Z,23.93
2018-11-05T07:35:03.005Z,23.40
2018-11-05T07:37:34.899Z,22.80
2018-11-05T07:40:08.170Z,36.37
2018-11-05T07:42:40.331Z,28.77
2018-11-05T07:45:23.985Z,33.60
2018-11-05T07:47:55.804Z,35.60
2018-11-05T07:50:29.922Z,41.40
2018-11-05T07:52:59.543Z,37.27
2018-11-05T07:55:31.336Z,32.40
2018-11-05T07:58:03.240Z,29.90
2018-11-05T08:00:52.448Z,29.47
2018-11-05T08:03:24.718Z,25.67
2018-11-05T08:05:57.233Z,32.50
2018-11-05T08:08:29.179Z,29.10
2018-11-05T08:11:00.913Z,27.93
2018-11-05T08:13:32.908Z,28.47
2018-11-05T08:16:04.815Z,22.73
2018-11-05T08:18:36.643Z,27.60
2018-11-05T08:21:08.488Z,26.80
2018-11-05T08:23:40.414Z,26.80
2018-11-05T08:26:12.274Z,29.07
2018-11-05T08:28:44.147Z,24.53
2018-11-05T08:31:15.988Z,26.70
2018-11-05T08:33:47.921Z,28.53
2018-11-05T08:36:19.742Z,27.50
2018-11-05T08:38:51.752Z,26.47
2018-11-05T08:41:23.626Z,28.20
2018-11-05T08:43:55.583Z,22.33
2018-11-05T08:46:27.313Z,26.20
2018-11-05T08:48:59.184Z,28.40
2018-11-05T08:51:31.398Z,30.67
2018-11-05T08:54:03.189Z,30.70
2018-11-05T08:56:35.024Z,22.87
2018-11-05T08:59:07.338Z,28.60
2018-11-05T09:01:39.044Z,23.93
2018-11-05T09:04:11.052Z,24.80
2018-11-05T09:06:42.752Z,19.33
2018-11-05T09:09:14.656Z,25.87
2018-11-05T09:11:46.688Z,26.60
2018-11-05T09:14:18.542Z,27.37
2018-11-05T09:16:50.306Z,22.53
2018-11-05T09:19:22.199Z,21.10
2018-11-05T09:21:54.220Z,25.53
2018-11-05T09:24:28.840Z,21.30
2018-11-05T09:27:00.769Z,23.63
2018-11-05T09:29:32.669Z,26.27
2018-11-05T09:32:07.125Z,18.60
2018-11-05T09:34:39.013Z,45.77
2018-11-05T09:37:10.917Z,22.90
2018-11-05T09:39:42.813Z,23.00
2018-11-05T09:42:14.678Z,24.80
2018-11-05T09:44:46.744Z,22.63
2018-11-05T09:47:18.610Z,23.03
2018-11-05T09:49:50.793Z,20.50
2018-11-05T09:52:22.766Z,18.03
2018-11-05T09:54:54.693Z,20.33
2018-11-05T09:57:26.655Z,17.30
2018-11-05T09:59:58.451Z,23.60
2018-11-05T10:02:49.117Z,20.70
2018-11-05T10:05:23.605Z,20.30
2018-11-05T10:07:58.139Z,25.80
2018-11-05T10:10:30.179Z,22.13
2018-11-05T10:13:02.042Z,20.10
2018-11-05T10:15:34.060Z,21.00
2018-11-05T10:18:06.143Z,22.30
2018-11-05T10:20:40.682Z,19.40
2018-11-05T10:23:12.523Z,18.20
2018-11-05T10:25:44.497Z,19.53
2018-11-05T10:28:16.330Z,27.60
2018-11-05T10:30:48.185Z,18.53
2018-11-05T10:33:20.248Z,21.07
2018-11-05T10:35:55.568Z,21.13
2018-11-05T10:38:30.290Z,22.80
2018-11-05T10:41:02.178Z,20.90
2018-11-05T10:43:36.128Z,21.03
2018-11-05T10:46:08.597Z,27.20
2018-11-05T10:48:40.474Z,20.10
2018-11-05T10:51:12.547Z,15.87
2018-11-05T10:53:44.270Z,23.03
2018-11-05T10:56:16.283Z,15.30
2018-11-05T10:58:48.070Z,13.70
2018-11-05T11:01:37.115Z,28.90
2018-11-05T11:04:25.911Z,19.03
2018-11-05T11:06:57.712Z,17.87
2018-11-05T11:09:29.615Z,28.67
2018-11-05T11:12:01.752Z,23.43
2018-11-05T11:14:33.574Z,27.13
2018-11-05T11:17:05.445Z,21.87
2018-11-05T11:19:41.481Z,26.53
2018-11-05T11:22:13.402Z,18.53
2018-11-05T11:24:45.479Z,23.73
2018-11-05T11:27:17.414Z,22.33
2018-11-05T11:29:49.895Z,19.43
2018-11-05T11:32:21.731Z,22.67
2018-11-05T11:34:56.411Z,15.80
2018-11-05T11:37:28.459Z,14.77
2018-11-05T11:40:00.504Z,14.10
2018-11-05T11:42:32.532Z,9.17
2018-11-05T11:45:04.581Z,11.70
2018-11-05T11:47:36.215Z,11.23
2018-11-05T11:50:10.860Z,16.17
2018-11-05T11:52:43.390Z,14.43
2018-11-05T11:55:20.164Z,9.63
2018-11-05T11:57:52.028Z,13.00
2018-11-05T12:00:25.194Z,9.33
2018-11-05T12:02:57.029Z,9.80
2018-11-05T12:05:29.049Z,8.33
2018-11-05T12:08:00.719Z,14.93
2018-11-05T12:10:35.047Z,12.43
2018-11-05T12:13:07.155Z,9.63
2018-11-05T12:15:39.035Z,15.80
2018-11-05T12:18:11.148Z,13.70
2018-11-05T12:20:42.970Z,19.83
2018-11-05T12:23:14.817Z,12.63
2018-11-05T12:25:46.657Z,12.03
2018-11-05T12:28:18.498Z,7.80
2018-11-05T12:30:50.329Z,8.23
2018-11-05T12:33:22.223Z,18.07
2018-11-05T12:35:54.163Z,9.50
2018-11-05T12:38:26.209Z,19.43
2018-11-05T12:40:58.142Z,12.60
2018-11-05T12:43:30.005Z,8.87
2018-11-05T12:46:01.822Z,10.27
2018-11-05T12:48:33.682Z,17.40
2018-11-05T12:51:05.595Z,9.50
2018-11-05T12:53:37.499Z,12.07
2018-11-05T12:56:09.291Z,11.30
2018-11-05T12:58:41.235Z,13.93
2018-11-05T13:01:13.171Z,13.93
2018-11-05T13:03:46.068Z,15.17
2018-11-05T13:06:17.994Z,8.87
2018-11-05T13:08:49.846Z,9.73
2018-11-05T13:11:21.691Z,7.90
2018-11-05T13:13:53.553Z,7.70
2018-11-05T13:16:25.382Z,11.07
2018-11-05T13:18:57.462Z,7.30
2018-11-05T13:21:29.723Z,12.00
2018-11-05T13:24:01.977Z,13.40
2018-11-05T13:26:33.875Z,8.80
2018-11-05T13:29:05.987Z,18.07
2018-11-05T13:31:37.845Z,15.10
2018-11-05T13:34:10.116Z,13.13
2018-11-05T13:36:42.198Z,7.63
2018-11-05T13:39:14.270Z,7.50
2018-11-05T13:41:46.115Z,9.83
2018-11-05T13:44:17.903Z,18.10
2018-11-05T13:46:50.193Z,12.50
2018-11-05T13:49:21.755Z,19.13
2018-11-05T13:51:53.487Z,10.17
2018-11-05T13:54:25.350Z,5.83
2018-11-05T13:56:57.202Z,9.50
2018-11-05T13:59:29.059Z,14.93
2018-11-05T14:02:00.934Z,11.10
2018-11-05T14:04:32.946Z,10.23
2018-11-05T14:07:04.858Z,13.67
2018-11-05T14:09:36.876Z,10.83
2018-11-05T14:12:08.785Z,17.13
2018-11-05T14:14:40.845Z,13.90
2018-11-05T14:17:12.739Z,17.13
2018-11-05T14:19:44.560Z,8.70
2018-11-05T14:22:16.421Z,15.67
2018-11-05T14:24:48.319Z,17.40
2018-11-05T14:27:20.344Z,10.67
2018-11-05T14:29:52.409Z,11.30
2018-11-05T14:32:26.155Z,10.93
2018-11-05T14:34:58.059Z,13.90
2018-11-05T14:37:30.030Z,8.70
2018-11-05T14:40:01.812Z,11.47
2018-11-05T14:42:33.687Z,9.87
2018-11-05T14:45:06.206Z,11.03
2018-11-05T14:47:38.051Z,10.07
2018-11-05T14:50:13.043Z,13.20
2018-11-05T14:52:44.963Z,27.57
2018-11-05T14:55:18.638Z,33.57
2018-11-05T14:57:51.621Z,30.03
2018-11-05T15:00:27.604Z,27.30
2018-11-05T15:03:01.419Z,13.57
2018-11-05T15:05:31.617Z,12.00
2018-11-05T15:08:03.593Z,12.37
2018-11-05T15:10:35.431Z,13.47
2018-11-05T15:13:07.508Z,14.73
2018-11-05T15:15:39.351Z,21.77
2018-11-05T15:18:11.357Z,11.90
2018-11-05T15:20:43.204Z,14.90
2018-11-05T15:23:15.051Z,14.80
2018-11-05T15:25:47.072Z,15.97
2018-11-05T15:28:18.745Z,17.13
2018-11-05T15:30:50.735Z,17.77
2018-11-05T15:33:22.628Z,21.73
2018-11-05T15:35:54.490Z,18.13
2018-11-05T15:38:26.321Z,30.00
2018-11-05T15:40:58.218Z,19.90
2018-11-05T15:43:30.798Z,27.23
2018-11-05T15:46:02.770Z,18.10
2018-11-05T15:48:37.299Z,19.40
2018-11-05T15:51:09.269Z,22.00
2018-11-05T15:53:41.464Z,37.27
2018-11-05T15:56:13.021Z,33.67
2018-11-05T15:58:45.494Z,30.40
2018-11-05T16:01:17.509Z,32.50
2018-11-05T16:03:49.487Z,29.40
2018-11-05T16:06:21.366Z,31.80
2018-11-05T16:08:53.264Z,26.23
2018-11-05T16:11:25.167Z,37.53
2018-11-05T16:13:57.320Z,54.73
2018-11-05T16:16:29.229Z,24.40
2018-11-05T16:19:01.255Z,29.60
2018-11-05T16:21:33.167Z,28.73
2018-11-05T16:24:05.045Z,42.83
2018-11-05T16:26:36.907Z,34.07
2018-11-05T16:29:08.898Z,49.30
2018-11-05T16:31:40.842Z,40.63
2018-11-05T16:34:12.690Z,29.17
2018-11-05T16:36:44.630Z,29.60
2018-11-05T16:39:16.548Z,27.23
2018-11-05T16:41:48.568Z,24.33
2018-11-05T16:44:20.467Z,21.50
2018-11-05T16:46:52.487Z,28.33
2018-11-05T16:49:24.323Z,31.63
2018-11-05T16:51:56.335Z,24.67
2018-11-05T16:54:28.189Z,29.07
2018-11-05T16:57:00.214Z,31.73
2018-11-05T16:59:32.119Z,23.73
2018-11-05T17:02:05.139Z,23.63
2018-11-05T17:04:36.723Z,28.93
2018-11-05T17:07:08.956Z,28.27
2018-11-05T17:09:40.862Z,39.67
2018-11-05T17:12:15.637Z,37.13
2018-11-05T17:14:47.505Z,42.13
2018-11-05T17:17:19.378Z,45.20
2018-11-05T17:19:51.347Z,52.73
2018-11-05T17:22:29.738Z,31.77
2018-11-05T17:25:01.746Z,36.20
2018-11-05T17:27:33.506Z,38.63
2018-11-05T17:30:11.887Z,41.47
2018-11-05T17:32:48.399Z,38.33
2018-11-05T17:35:26.054Z,37.37
2018-11-05T17:38:04.374Z,31.60
2018-11-05T17:40:36.578Z,30.53
2018-11-05T17:43:08.578Z,25.53
2018-11-05T17:45:40.407Z,31.90
2018-11-05T17:48:12.357Z,32.77
2018-11-05T17:50:44.200Z,39.13
2018-11-05T17:53:16.056Z,26.73
2018-11-05T17:55:48.097Z,27.90
2018-11-05T17:58:19.870Z,33.67
2018-11-05T18:00:51.729Z,28.03
2018-11-05T18:03:24.485Z,42.47
2018-11-05T18:05:56.348Z,34.73
2018-11-05T18:08:28.219Z,43.20
2018-11-05T18:11:00.140Z,29.10
2018-11-05T18:13:32.058Z,30.90
2018-11-05T18:16:03.981Z,40.40
2018-11-05T18:18:35.922Z,35.60
2018-11-05T18:21:07.814Z,37.73
2018-11-05T18:23:39.836Z,30.50
2018-11-05T18:26:11.706Z,30.00
2018-11-05T18:28:43.569Z,34.03
2018-11-05T18:31:15.515Z,29.83
2018-11-05T18:33:47.352Z,32.93
2018-11-05T18:36:19.483Z,36.40
2018-11-05T18:38:51.516Z,34.30
2018-11-05T18:41:23.421Z,36.03
2018-11-05T18:43:55.350Z,34.17
2018-11-05T18:46:27.291Z,30.30
2018-11-05T18:48:59.182Z,42.77
2018-11-05T18:51:31.073Z,32.63
2018-11-05T18:54:02.969Z,38.47
2018-11-05T18:56:34.857Z,35.90
2018-11-05T18:59:07.427Z,45.77
2018-11-05T19:01:39.315Z,52.03
2018-11-05T19:04:11.186Z,50.83
2018-11-05T19:06:43.042Z,63.03
2018-11-05T19:09:15.067Z,65.93
2018-11-05T19:11:47.001Z,59.40
2018-11-05T19:14:19.524Z,65.13
2018-11-05T19:16:51.478Z,63.20
2018-11-05T19:19:23.414Z,52.97
2018-11-05T19:21:55.259Z,56.67
2018-11-05T19:24:27.274Z,59.60
2018-11-05T19:26:59.016Z,62.50
2018-11-05T19:29:30.870Z,61.00
2018-11-05T19:32:02.723Z,60.80
2018-11-05T19:34:34.618Z,58.00
2018-11-05T19:37:06.831Z,60.60
2018-11-05T19:39:38.743Z,52.27
2018-11-05T19:42:10.638Z,54.70
2018-11-05T19:44:42.458Z,63.73
2018-11-05T19:47:14.337Z,57.57
2018-11-05T19:49:46.427Z,47.97
2018-11-05T19:52:18.271Z,51.10
2018-11-05T19:54:50.300Z,60.30
2018-11-05T19:57:22.150Z,58.20
2018-11-05T19:59:54.027Z,63.90
2018-11-05T20:02:32.037Z,74.57
2018-11-05T20:05:03.880Z,68.93
2018-11-05T20:07:35.708Z,62.03
2018-11-05T20:10:08.725Z,71.17
2018-11-05T20:12:40.750Z,62.03
2018-11-05T20:15:12.990Z,59.10
2018-11-05T20:17:45.592Z,43.83
2018-11-05T20:20:18.708Z,41.47
2018-11-05T20:22:50.622Z,31.37
2018-11-05T20:25:22.639Z,34.90
2018-11-05T20:27:54.459Z,38.50
2018-11-05T20:30:27.460Z,41.67
2018-11-05T20:33:00.277Z,40.13
2018-11-05T20:35:31.938Z,50.47
2018-11-05T20:38:03.827Z,58.27
2018-11-05T20:40:35.783Z,54.50
2018-11-05T20:43:07.689Z,53.23
2018-11-05T20:45:39.573Z,56.60
2018-11-05T20:48:11.413Z,72.93
2018-11-05T20:50:43.319Z,59.57
2018-11-05T20:53:15.138Z,60.63
2018-11-05T20:55:46.961Z,56.13
2018-11-05T20:58:18.833Z,50.23
2018-11-05T21:00:50.741Z,52.63
2018-11-05T21:03:22.578Z,46.00
2018-11-05T21:05:54.452Z,44.10
2018-11-05T21:08:26.337Z,51.17
2018-11-05T21:10:58.170Z,49.30
2018-11-05T21:13:30.009Z,50.87
2018-11-05T21:16:01.855Z,63.70
2018-11-05T21:18:33.648Z,57.20
2018-11-05T21:21:05.722Z,56.53
2018-11-05T21:23:37.453Z,51.40
2018-11-05T21:26:09.300Z,59.90
2018-11-05T21:28:41.103Z,62.07
2018-11-05T21:31:12.914Z,50.40
2018-11-05T21:33:44.883Z,61.27
2018-11-05T21:36:17.067Z,53.40
2018-11-05T21:38:48.910Z,51.07
2018-11-05T21:41:21.158Z,53.10
2018-11-05T21:43:52.985Z,60.93
2018-11-05T21:46:24.892Z,50.27
2018-11-05T21:48:56.926Z,46.67
2018-11-05T21:51:28.862Z,45.23
2018-11-05T21:54:00.839Z,42.10
2018-11-05T21:56:32.598Z,40.60
2018-11-05T21:59:04.442Z,36.40
2018-11-05T22:01:36.267Z,38.73
2018-11-05T22:04:08.117Z,37.70
2018-11-05T22:06:39.932Z,42.10
2018-11-05T22:09:11.731Z,40.50
2018-11-05T22:11:43.573Z,40.10
2018-11-05T22:14:15.382Z,57.33
2018-11-05T22:16:47.223Z,47.67
2018-11-05T22:19:19.036Z,43.43
2018-11-05T22:21:50.854Z,34.20
2018-11-05T22:24:22.810Z,41.07
2018-11-05T22:26:54.641Z,45.97
2018-11-05T22:29:26.572Z,33.60
2018-11-05T22:31:58.662Z,34.10
2018-11-05T22:34:30.441Z,34.47
2018-11-05T22:37:02.364Z,33.67
2018-11-05T22:39:34.147Z,35.07
2018-11-05T22:42:06.265Z,39.33
2018-11-05T22:44:38.074Z,30.00
2018-11-05T22:47:09.935Z,38.50
2018-11-05T22:49:41.724Z,27.57
2018-11-05T22:52:13.568Z,40.97
2018-11-05T22:54:45.358Z,28.00
2018-11-05T22:57:17.235Z,32.00
2018-11-05T22:59:49.097Z,40.97
2018-11-05T23:02:20.957Z,28.47
2018-11-05T23:04:52.772Z,31.20
2018-11-05T23:07:24.605Z,36.23
2018-11-05T23:09:56.412Z,33.67
2018-11-05T23:12:28.269Z,30.07
2018-11-05T23:15:00.047Z,28.83
2018-11-05T23:17:34.967Z,28.87
2018-11-05T23:20:07.768Z,21.23
2018-11-05T23:22:39.936Z,26.53
2018-11-05T23:25:11.810Z,27.20
2018-11-05T23:27:43.686Z,23.30
2018-11-05T23:30:15.456Z,22.90
2018-11-05T23:32:47.273Z,29.67
2018-11-05T23:35:19.058Z,23.87
2018-11-05T23:37:50.907Z,33.80
2018-11-05T23:40:22.717Z,34.10
2018-11-05T23:42:54.523Z,31.63
2018-11-05T23:45:26.340Z,28.37
2018-11-05T23:47:58.164Z,30.90
2018-11-05T23:50:29.956Z,26.10
2018-11-05T23:53:01.748Z,28.80
2018-11-05T23:55:33.550Z,23.37
2018-11-05T23:58:05.381Z,26.07
